メインページ
METAR-TAF:

METAR-TAF

空港 :

Golden, ブリティッシュコロンビア州, カナダ

緯度: 51-18N, 経度: 116-59W, 海抜: 785m

現時点の気象観測

当レポートは8時間47分前の00:00(UTC)に作成
南東の風 7kt
気温 34°C
湿度 28%
気圧 1011 hPa
視程: 32.2km
高度10000ftの雲は散在している, 塔状積雲.
高度12000ftの雲は散在している

METAR: CYGE 030000Z 14007KT 20SM SCT100TCU SCT120 34/13 A2985 RMK TCU3AC1 AC TR TCU NE LAST STFD OBS/NEXT 031200Z SLP093 DENSITY ALT 5400FT

時間: 02:47 (08:47 UTC)


TAF: 見つかりません

4,000以上の空港の気象観測と天気予報(METAR報とTAF報)

利用可能な観測所は地図上に黄色い丸と赤い丸で示す。

丸の上にカーソルを重ねると観測所名を参照できる。

次にクリックすると気象観測と天気予報を参照できる。

マップの切り替え:黒色「×」印の緑ボタンをクリックして拡大、「-」印の緑ボタンをクリックして縮小、緑色の三角印をクリックして隣りの地図に切り替え


METAR-TAF: